sensor_id;sensor_type;location;lat;lon;timestamp;pressure;altitude;pressure_sealevel;temperature;humidity
41234;BME280;26968;42.686;23.352;2023-01-27T00:01:50;94359.66;;;0.81;80.24
41234;BME280;26968;42.686;23.352;2023-01-27T00:04:15;94349.44;;;0.79;80.60
41234;BME280;26968;42.686;23.352;2023-01-27T00:06:40;94408.81;;;1.12;80.93
41234;BME280;26968;42.686;23.352;2023-01-27T00:09:06;94400.75;;;1.13;80.14
41234;BME280;26968;42.686;23.352;2023-01-27T00:11:31;94394.72;;;1.13;80.58
41234;BME280;26968;42.686;23.352;2023-01-27T00:14:15;94374.09;;;1.00;80.21
41234;BME280;26968;42.686;23.352;2023-01-27T00:16:41;94367.97;;;1.06;80.68
41234;BME280;26968;42.686;23.352;2023-01-27T00:19:06;94331.41;;;0.77;80.18
41234;BME280;26968;42.686;23.352;2023-01-27T00:21:32;94349.31;;;0.86;80.49
41234;BME280;26968;42.686;23.352;2023-01-27T00:24:16;94284.50;;;0.37;80.69
41234;BME280;26968;42.686;23.352;2023-01-27T00:27:00;94365.25;;;1.01;80.81
41234;BME280;26968;42.686;23.352;2023-01-27T00:29:26;94374.66;;;1.02;80.64
41234;BME280;26968;42.686;23.352;2023-01-27T00:31:51;94276.41;;;0.39;81.07
41234;BME280;26968;42.686;23.352;2023-01-27T00:34:35;94364.78;;;1.04;80.92
41234;BME280;26968;42.686;23.352;2023-01-27T00:37:00;94365.44;;;1.11;80.77
41234;BME280;26968;42.686;23.352;2023-01-27T00:39:26;94367.19;;;1.05;80.55
41234;BME280;26968;42.686;23.352;2023-01-27T00:41:51;94380.16;;;1.17;80.33
41234;BME280;26968;42.686;23.352;2023-01-27T00:44:17;94301.69;;;0.78;80.44
41234;BME280;26968;42.686;23.352;2023-01-27T00:46:42;94338.84;;;0.97;80.41
41234;BME280;26968;42.686;23.352;2023-01-27T00:49:09;94367.59;;;1.14;80.66
41234;BME280;26968;42.686;23.352;2023-01-27T00:51:37;94315.44;;;0.74;80.59
41234;BME280;26968;42.686;23.352;2023-01-27T00:54:03;94356.75;;;0.94;80.25
41234;BME280;26968;42.686;23.352;2023-01-27T00:56:29;94376.19;;;1.14;80.47
41234;BME280;26968;42.686;23.352;2023-01-27T00:58:54;94314.56;;;0.85;80.24
41234;BME280;26968;42.686;23.352;2023-01-27T01:01:20;94319.34;;;0.88;80.41
41234;BME280;26968;42.686;23.352;2023-01-27T01:03:45;94380.03;;;1.24;80.26
41234;BME280;26968;42.686;23.352;2023-01-27T01:06:14;94355.78;;;1.11;80.28
41234;BME280;26968;42.686;23.352;2023-01-27T01:08:40;94339.78;;;1.08;79.90
41234;BME280;26968;42.686;23.352;2023-01-27T01:11:08;94358.31;;;1.23;80.26
41234;BME280;26968;42.686;23.352;2023-01-27T01:13:34;94356.47;;;1.07;80.96
41234;BME280;26968;42.686;23.352;2023-01-27T01:16:11;94329.25;;;1.03;80.77
41234;BME280;26968;42.686;23.352;2023-01-27T01:18:37;94371.94;;;1.25;80.65
41234;BME280;26968;42.686;23.352;2023-01-27T01:21:03;94302.66;;;0.89;80.38
41234;BME280;26968;42.686;23.352;2023-01-27T01:23:31;94355.41;;;1.20;80.29
41234;BME280;26968;42.686;23.352;2023-01-27T01:25:57;94314.13;;;0.88;80.27
41234;BME280;26968;42.686;23.352;2023-01-27T01:28:24;94325.56;;;0.99;80.35
41234;BME280;26968;42.686;23.352;2023-01-27T01:30:50;94367.59;;;1.31;80.69
41234;BME280;26968;42.686;23.352;2023-01-27T01:33:15;94359.75;;;1.31;81.01
41234;BME280;26968;42.686;23.352;2023-01-27T01:35:41;94371.28;;;1.30;80.85
41234;BME280;26968;42.686;23.352;2023-01-27T01:38:07;94376.78;;;1.33;80.73
41234;BME280;26968;42.686;23.352;2023-01-27T01:40:33;94382.81;;;1.34;80.32
41234;BME280;26968;42.686;23.352;2023-01-27T01:43:00;94386.78;;;1.36;80.13
41234;BME280;26968;42.686;23.352;2023-01-27T01:48:09;94378.19;;;1.24;80.28
41234;BME280;26968;42.686;23.352;2023-01-27T01:50:38;94311.28;;;0.90;80.27
41234;BME280;26968;42.686;23.352;2023-01-27T01:53:05;94379.63;;;1.32;80.46
41234;BME280;26968;42.686;23.352;2023-01-27T01:55:33;94307.50;;;0.97;80.68
41234;BME280;26968;42.686;23.352;2023-01-27T01:58:01;94355.91;;;1.33;81.00
41234;BME280;26968;42.686;23.352;2023-01-27T02:00:27;94319.47;;;1.10;81.25
41234;BME280;26968;42.686;23.352;2023-01-27T02:02:52;94353.28;;;1.33;81.28
41234;BME280;26968;42.686;23.352;2023-01-27T02:05:28;94329.84;;;1.22;81.42
41234;BME280;26968;42.686;23.352;2023-01-27T02:07:56;94342.72;;;1.11;81.87
41234;BME280;26968;42.686;23.352;2023-01-27T02:10:23;94338.72;;;0.92;82.41
41234;BME280;26968;42.686;23.352;2023-01-27T02:12:49;94245.22;;;0.44;82.45
41234;BME280;26968;42.686;23.352;2023-01-27T02:15:15;94322.59;;;0.95;82.11
41234;BME280;26968;42.686;23.352;2023-01-27T02:17:41;94265.66;;;0.64;82.42
41234;BME280;26968;42.686;23.352;2023-01-27T02:20:27;94310.53;;;1.06;81.83
41234;BME280;26968;42.686;23.352;2023-01-27T02:23:13;94308.72;;;1.06;82.14
41234;BME280;26968;42.686;23.352;2023-01-27T02:28:16;94244.56;;;0.65;82.15
41234;BME280;26968;42.686;23.352;2023-01-27T02:30:41;94280.25;;;0.93;82.14
41234;BME280;26968;42.686;23.352;2023-01-27T02:33:11;94249.81;;;0.82;81.85
41234;BME280;26968;42.686;23.352;2023-01-27T02:38:23;94306.22;;;0.83;82.53
41234;BME280;26968;42.686;23.352;2023-01-27T02:40:53;94311.97;;;0.57;83.85
41234;BME280;26968;42.686;23.352;2023-01-27T02:43:21;94299.50;;;0.59;83.68
41234;BME280;26968;42.686;23.352;2023-01-27T02:45:47;94308.66;;;0.61;84.27
41234;BME280;26968;42.686;23.352;2023-01-27T02:48:13;94310.91;;;0.69;83.81
41234;BME280;26968;42.686;23.352;2023-01-27T02:50:38;94328.72;;;0.72;83.51
41234;BME280;26968;42.686;23.352;2023-01-27T02:53:04;94186.22;;;-0.02;82.83
41234;BME280;26968;42.686;23.352;2023-01-27T02:55:30;94312.75;;;0.86;82.38
41234;BME280;26968;42.686;23.352;2023-01-27T02:57:55;94311.59;;;0.93;82.08
41234;BME280;26968;42.686;23.352;2023-01-27T03:00:21;94201.56;;;0.23;81.70
41234;BME280;26968;42.686;23.352;2023-01-27T03:02:46;94293.38;;;0.82;82.78
41234;BME280;26968;42.686;23.352;2023-01-27T03:05:11;94321.88;;;1.00;82.39
41234;BME280;26968;42.686;23.352;2023-01-27T03:07:38;94317.78;;;1.04;82.65
41234;BME280;26968;42.686;23.352;2023-01-27T03:10:03;94289.75;;;0.83;82.79
41234;BME280;26968;42.686;23.352;2023-01-27T03:12:29;94294.81;;;0.89;82.59
41234;BME280;26968;42.686;23.352;2023-01-27T03:14:54;94302.75;;;0.94;82.58
41234;BME280;26968;42.686;23.352;2023-01-27T03:17:38;94221.38;;;0.52;82.37
41234;BME280;26968;42.686;23.352;2023-01-27T03:20:23;94287.94;;;1.00;82.30
41234;BME280;26968;42.686;23.352;2023-01-27T03:22:48;94277.91;;;1.08;82.06
41234;BME280;26968;42.686;23.352;2023-01-27T03:25:14;94270.63;;;0.94;82.11
41234;BME280;26968;42.686;23.352;2023-01-27T03:27:40;94195.66;;;0.44;82.43
41234;BME280;26968;42.686;23.352;2023-01-27T03:30:07;94284.53;;;0.99;82.67
41234;BME280;26968;42.686;23.352;2023-01-27T03:32:33;94274.00;;;0.77;82.93
41234;BME280;26968;42.686;23.352;2023-01-27T03:34:59;94202.75;;;0.32;83.61
41234;BME280;26968;42.686;23.352;2023-01-27T03:37:26;94255.41;;;0.74;83.53
41234;BME280;26968;42.686;23.352;2023-01-27T03:40:12;94248.53;;;0.85;83.15
41234;BME280;26968;42.686;23.352;2023-01-27T03:42:56;94217.25;;;0.56;83.78
41234;BME280;26968;42.686;23.352;2023-01-27T03:45:44;94251.78;;;0.47;84.53
41234;BME280;26968;42.686;23.352;2023-01-27T03:48:30;94242.78;;;0.26;85.01
41234;BME280;26968;42.686;23.352;2023-01-27T03:51:02;94202.00;;;-0.09;85.64
41234;BME280;26968;42.686;23.352;2023-01-27T03:53:27;94193.75;;;-0.29;86.21
41234;BME280;26968;42.686;23.352;2023-01-27T03:55:53;94210.91;;;-0.05;86.52
41234;BME280;26968;42.686;23.352;2023-01-27T04:00:51;94186.06;;;-0.24;85.83
41234;BME280;26968;42.686;23.352;2023-01-27T04:03:18;94246.91;;;0.10;85.76
41234;BME280;26968;42.686;23.352;2023-01-27T04:06:04;94256.69;;;0.03;86.16
41234;BME280;26968;42.686;23.352;2023-01-27T04:08:49;94256.25;;;0.06;86.02
41234;BME280;26968;42.686;23.352;2023-01-27T04:11:14;94286.91;;;0.16;85.69
41234;BME280;26968;42.686;23.352;2023-01-27T04:14:03;94272.53;;;0.13;85.74
41234;BME280;26968;42.686;23.352;2023-01-27T04:16:30;94285.16;;;0.33;85.18
41234;BME280;26968;42.686;23.352;2023-01-27T04:18:56;94295.00;;;0.43;84.18
41234;BME280;26968;42.686;23.352;2023-01-27T04:21:23;94318.97;;;0.68;83.61
41234;BME280;26968;42.686;23.352;2023-01-27T04:23:50;94316.78;;;0.76;83.76
41234;BME280;26968;42.686;23.352;2023-01-27T04:26:15;94247.28;;;0.42;83.46
41234;BME280;26968;42.686;23.352;2023-01-27T04:28:41;94317.75;;;0.87;83.28
41234;BME280;26968;42.686;23.352;2023-01-27T04:31:06;94265.09;;;0.33;82.69
41234;BME280;26968;42.686;23.352;2023-01-27T04:33:32;94235.03;;;0.03;82.98
41234;BME280;26968;42.686;23.352;2023-01-27T04:35:57;94238.44;;;0.15;82.85
41234;BME280;26968;42.686;23.352;2023-01-27T04:38:23;94318.69;;;0.81;82.48
41234;BME280;26968;42.686;23.352;2023-01-27T04:40:48;94330.34;;;0.90;82.78
41234;BME280;26968;42.686;23.352;2023-01-27T04:43:13;94254.22;;;0.36;82.68
41234;BME280;26968;42.686;23.352;2023-01-27T04:45:39;94249.78;;;0.37;82.72
41234;BME280;26968;42.686;23.352;2023-01-27T04:48:05;94302.63;;;0.72;82.38
41234;BME280;26968;42.686;23.352;2023-01-27T04:50:33;94232.94;;;0.28;82.21
41234;BME280;26968;42.686;23.352;2023-01-27T04:52:58;94282.91;;;0.65;82.17
41234;BME280;26968;42.686;23.352;2023-01-27T04:55:24;94271.09;;;0.62;82.44
41234;BME280;26968;42.686;23.352;2023-01-27T04:57:49;94327.09;;;1.00;82.13
41234;BME280;26968;42.686;23.352;2023-01-27T05:00:15;94304.25;;;0.90;82.25
41234;BME280;26968;42.686;23.352;2023-01-27T05:02:40;94338.69;;;1.04;82.32
41234;BME280;26968;42.686;23.352;2023-01-27T05:05:06;94354.16;;;0.94;83.60
41234;BME280;26968;42.686;23.352;2023-01-27T05:07:32;94310.91;;;0.69;83.88
41234;BME280;26968;42.686;23.352;2023-01-27T05:09:57;94349.59;;;1.01;83.26
41234;BME280;26968;42.686;23.352;2023-01-27T05:12:23;94223.97;;;0.24;82.91
41234;BME280;26968;42.686;23.352;2023-01-27T05:14:49;94337.09;;;1.03;82.44
41234;BME280;26968;42.686;23.352;2023-01-27T05:17:15;94329.44;;;0.56;83.79
41234;BME280;26968;42.686;23.352;2023-01-27T05:19:40;94308.06;;;0.43;84.80
41234;BME280;26968;42.686;23.352;2023-01-27T05:22:06;94339.88;;;0.56;84.59
41234;BME280;26968;42.686;23.352;2023-01-27T05:24:32;94171.38;;;-0.53;84.44
41234;BME280;26968;42.686;23.352;2023-01-27T05:26:58;94316.44;;;0.45;84.94
41234;BME280;26968;42.686;23.352;2023-01-27T05:29:24;94263.94;;;0.13;85.47
41234;BME280;26968;42.686;23.352;2023-01-27T05:31:49;94238.53;;;-0.32;86.01
41234;BME280;26968;42.686;23.352;2023-01-27T05:34:15;94287.75;;;0.05;86.61
41234;BME280;26968;42.686;23.352;2023-01-27T05:36:41;94276.63;;;0.09;86.45
41234;BME280;26968;42.686;23.352;2023-01-27T05:39:09;94296.19;;;0.23;86.89
41234;BME280;26968;42.686;23.352;2023-01-27T05:41:35;94303.66;;;0.31;86.62
41234;BME280;26968;42.686;23.352;2023-01-27T05:44:01;94289.06;;;0.19;87.26
41234;BME280;26968;42.686;23.352;2023-01-27T05:46:28;94229.44;;;-0.18;86.32
41234;BME280;26968;42.686;23.352;2023-01-27T05:48:56;94308.50;;;-0.01;87.14
41234;BME280;26968;42.686;23.352;2023-01-27T05:51:23;94289.25;;;-0.23;87.49
41234;BME280;26968;42.686;23.352;2023-01-27T05:53:49;94293.78;;;-0.18;87.57
41234;BME280;26968;42.686;23.352;2023-01-27T05:56:17;94316.56;;;-0.25;87.91
41234;BME280;26968;42.686;23.352;2023-01-27T05:58:43;94240.25;;;-0.84;88.30
41234;BME280;26968;42.686;23.352;2023-01-27T06:01:19;94320.53;;;-0.34;88.26
41234;BME280;26968;42.686;23.352;2023-01-27T06:03:46;94335.38;;;-0.23;88.34
41234;BME280;26968;42.686;23.352;2023-01-27T06:06:12;94322.00;;;-0.27;87.69
41234;BME280;26968;42.686;23.352;2023-01-27T06:08:38;94308.41;;;-0.17;87.88
41234;BME280;26968;42.686;23.352;2023-01-27T06:11:04;94308.50;;;-0.12;87.48
41234;BME280;26968;42.686;23.352;2023-01-27T06:13:31;94263.56;;;-0.43;87.61
41234;BME280;26968;42.686;23.352;2023-01-27T06:16:03;94207.28;;;-0.67;87.49
41234;BME280;26968;42.686;23.352;2023-01-27T06:18:29;94328.31;;;0.00;86.69
41234;BME280;26968;42.686;23.352;2023-01-27T06:20:58;94171.31;;;-1.05;86.88
41234;BME280;26968;42.686;23.352;2023-01-27T06:23:24;94210.13;;;-0.92;87.67
41234;BME280;26968;42.686;23.352;2023-01-27T06:25:52;94336.25;;;-0.06;87.66
41234;BME280;26968;42.686;23.352;2023-01-27T06:28:17;94328.00;;;-0.03;87.09
41234;BME280;26968;42.686;23.352;2023-01-27T06:30:43;94329.81;;;-0.04;87.01
41234;BME280;26968;42.686;23.352;2023-01-27T06:33:09;94335.91;;;0.02;86.59
41234;BME280;26968;42.686;23.352;2023-01-27T06:35:35;94333.09;;;-0.08;87.13
41234;BME280;26968;42.686;23.352;2023-01-27T06:38:03;94323.81;;;-0.16;86.77
41234;BME280;26968;42.686;23.352;2023-01-27T06:40:30;94327.09;;;-0.09;86.93
41234;BME280;26968;42.686;23.352;2023-01-27T06:42:56;94279.31;;;-0.49;87.26
41234;BME280;26968;42.686;23.352;2023-01-27T06:45:21;94253.38;;;-0.79;86.78
41234;BME280;26968;42.686;23.352;2023-01-27T06:47:58;94211.94;;;-0.92;87.10
41234;BME280;26968;42.686;23.352;2023-01-27T06:50:26;94255.97;;;-0.56;86.68
41234;BME280;26968;42.686;23.352;2023-01-27T06:52:59;94254.06;;;-0.72;85.86
41234;BME280;26968;42.686;23.352;2023-01-27T06:55:26;94225.97;;;-0.93;85.83
41234;BME280;26968;42.686;23.352;2023-01-27T06:57:52;94231.72;;;-0.91;85.25
41234;BME280;26968;42.686;23.352;2023-01-27T07:00:17;94346.69;;;-0.29;86.27
41234;BME280;26968;42.686;23.352;2023-01-27T07:02:43;94342.41;;;-0.24;86.90
41234;BME280;26968;42.686;23.352;2023-01-27T07:05:09;94333.88;;;-0.19;86.82
41234;BME280;26968;42.686;23.352;2023-01-27T07:07:35;94286.78;;;-0.41;86.43
41234;BME280;26968;42.686;23.352;2023-01-27T07:10:00;94347.34;;;0.01;85.50
41234;BME280;26968;42.686;23.352;2023-01-27T07:12:26;94253.63;;;-0.69;84.94
41234;BME280;26968;42.686;23.352;2023-01-27T07:14:51;94359.38;;;-0.10;85.34
41234;BME280;26968;42.686;23.352;2023-01-27T07:17:17;94269.34;;;-0.64;85.33
41234;BME280;26968;42.686;23.352;2023-01-27T07:19:42;94346.22;;;0.09;85.68
41234;BME280;26968;42.686;23.352;2023-01-27T07:22:08;94290.28;;;-0.35;84.66
41234;BME280;26968;42.686;23.352;2023-01-27T07:24:33;94315.19;;;-0.05;84.49
41234;BME280;26968;42.686;23.352;2023-01-27T07:26:58;94281.78;;;-0.31;84.75
41234;BME280;26968;42.686;23.352;2023-01-27T07:29:24;94195.53;;;-0.81;84.42
41234;BME280;26968;42.686;23.352;2023-01-27T07:31:49;94306.34;;;-0.04;84.49
41234;BME280;26968;42.686;23.352;2023-01-27T07:34:15;94255.75;;;-0.43;83.65
41234;BME280;26968;42.686;23.352;2023-01-27T07:36:41;94297.28;;;-0.13;84.68
41234;BME280;26968;42.686;23.352;2023-01-27T07:39:07;94250.56;;;-0.54;83.88
41234;BME280;26968;42.686;23.352;2023-01-27T07:41:32;94351.31;;;0.27;83.84
41234;BME280;26968;42.686;23.352;2023-01-27T07:43:58;94255.63;;;-0.36;83.53
41234;BME280;26968;42.686;23.352;2023-01-27T07:46:23;94282.81;;;-0.32;83.35
41234;BME280;26968;42.686;23.352;2023-01-27T07:48:48;94358.09;;;0.16;83.22
41234;BME280;26968;42.686;23.352;2023-01-27T07:51:14;94261.31;;;-0.39;82.63
41234;BME280;26968;42.686;23.352;2023-01-27T07:53:40;94264.56;;;-0.44;84.02
41234;BME280;26968;42.686;23.352;2023-01-27T07:56:06;94250.44;;;-0.48;83.68
41234;BME280;26968;42.686;23.352;2023-01-27T07:58:38;94366.72;;;0.17;83.74
41234;BME280;26968;42.686;23.352;2023-01-27T08:01:05;94292.09;;;-0.36;83.16
41234;BME280;26968;42.686;23.352;2023-01-27T08:03:31;94252.34;;;-0.66;83.16
41234;BME280;26968;42.686;23.352;2023-01-27T08:05:56;94294.25;;;-0.33;83.52
41234;BME280;26968;42.686;23.352;2023-01-27T08:08:22;94345.78;;;0.12;83.28
41234;BME280;26968;42.686;23.352;2023-01-27T08:10:47;94281.22;;;-0.33;83.62
41234;BME280;26968;42.686;23.352;2023-01-27T08:13:16;94331.50;;;0.03;83.39
41234;BME280;26968;42.686;23.352;2023-01-27T08:15:41;94283.00;;;-0.10;83.08
41234;BME280;26968;42.686;23.352;2023-01-27T08:18:08;94228.44;;;-0.52;82.90
41234;BME280;26968;42.686;23.352;2023-01-27T08:20:34;94284.16;;;-0.18;82.20
41234;BME280;26968;42.686;23.352;2023-01-27T08:22:59;94252.00;;;-0.23;81.46
41234;BME280;26968;42.686;23.352;2023-01-27T08:25:24;94356.16;;;0.35;82.68
41234;BME280;26968;42.686;23.352;2023-01-27T08:27:54;94355.03;;;0.31;81.53
41234;BME280;26968;42.686;23.352;2023-01-27T08:30:21;94357.53;;;0.37;82.07
41234;BME280;26968;42.686;23.352;2023-01-27T08:32:46;94227.22;;;-0.49;81.07
41234;BME280;26968;42.686;23.352;2023-01-27T08:35:12;94296.63;;;-0.08;81.24
41234;BME280;26968;42.686;23.352;2023-01-27T08:37:38;94285.41;;;-0.20;80.86
41234;BME280;26968;42.686;23.352;2023-01-27T08:40:04;94249.63;;;-0.48;81.05
41234;BME280;26968;42.686;23.352;2023-01-27T08:42:29;94300.94;;;-0.25;81.63
41234;BME280;26968;42.686;23.352;2023-01-27T08:44:55;94350.91;;;-0.17;81.40
41234;BME280;26968;42.686;23.352;2023-01-27T08:47:21;94320.06;;;-0.43;81.74
41234;BME280;26968;42.686;23.352;2023-01-27T08:49:47;94306.13;;;-0.72;82.35
41234;BME280;26968;42.686;23.352;2023-01-27T08:52:13;94351.09;;;-0.42;82.28
41234;BME280;26968;42.686;23.352;2023-01-27T08:54:38;94372.19;;;-0.31;83.19
41234;BME280;26968;42.686;23.352;2023-01-27T08:57:04;94260.13;;;-1.01;82.99
41234;BME280;26968;42.686;23.352;2023-01-27T08:59:29;94231.13;;;-1.28;83.52
41234;BME280;26968;42.686;23.352;2023-01-27T09:01:55;94292.63;;;-0.81;83.14
41234;BME280;26968;42.686;23.352;2023-01-27T09:04:21;94328.22;;;-0.51;83.13
41234;BME280;26968;42.686;23.352;2023-01-27T09:06:46;94327.63;;;-0.53;83.08
41234;BME280;26968;42.686;23.352;2023-01-27T09:09:14;94254.03;;;-1.07;82.30
41234;BME280;26968;42.686;23.352;2023-01-27T09:11:42;94272.72;;;-0.75;83.49
41234;BME280;26968;42.686;23.352;2023-01-27T09:14:08;94358.13;;;-0.19;83.58
41234;BME280;26968;42.686;23.352;2023-01-27T09:16:33;94355.97;;;-0.22;83.47
41234;BME280;26968;42.686;23.352;2023-01-27T09:18:59;94326.19;;;-0.49;83.47
41234;BME280;26968;42.686;23.352;2023-01-27T09:21:25;94358.47;;;-0.15;83.96
41234;BME280;26968;42.686;23.352;2023-01-27T09:23:50;94223.00;;;-0.97;83.71
41234;BME280;26968;42.686;23.352;2023-01-27T09:26:16;94268.66;;;-0.59;84.11
41234;BME280;26968;42.686;23.352;2023-01-27T09:28:41;94229.94;;;-0.67;83.42
41234;BME280;26968;42.686;23.352;2023-01-27T09:31:06;94275.44;;;-0.35;83.15
41234;BME280;26968;42.686;23.352;2023-01-27T09:33:35;94157.16;;;-1.21;83.29
41234;BME280;26968;42.686;23.352;2023-01-27T09:36:08;94340.19;;;0.08;83.43
41234;BME280;26968;42.686;23.352;2023-01-27T09:38:45;94324.47;;;0.03;83.05
41234;BME280;26968;42.686;23.352;2023-01-27T09:52:11;94327.75;;;0.10;84.29
41234;BME280;26968;42.686;23.352;2023-01-27T10:00:17;94325.97;;;-0.24;85.15
41234;BME280;26968;42.686;23.352;2023-01-27T10:08:33;94270.34;;;-0.42;85.54
41234;BME280;26968;42.686;23.352;2023-01-27T10:16:59;94306.81;;;-0.42;84.84
41234;BME280;26968;42.686;23.352;2023-01-27T10:22:24;94293.47;;;-0.33;84.96
41234;BME280;26968;42.686;23.352;2023-01-27T10:25:11;94200.03;;;-1.11;84.59
41234;BME280;26968;42.686;23.352;2023-01-27T10:27:45;94208.66;;;-0.88;84.96
41234;BME280;26968;42.686;23.352;2023-01-27T10:30:15;94250.22;;;-0.69;84.75
41234;BME280;26968;42.686;23.352;2023-01-27T10:33:18;94303.88;;;-0.33;84.89
41234;BME280;26968;42.686;23.352;2023-01-27T10:36:07;94289.03;;;-0.45;85.48
41234;BME280;26968;42.686;23.352;2023-01-27T10:39:16;94296.72;;;-0.38;85.09
41234;BME280;26968;42.686;23.352;2023-01-27T10:41:58;94312.03;;;-0.42;84.79
41234;BME280;26968;42.686;23.352;2023-01-27T10:47:49;94300.91;;;-0.37;84.37
41234;BME280;26968;42.686;23.352;2023-01-27T10:50:26;94245.09;;;-0.64;84.62
41234;BME280;26968;42.686;23.352;2023-01-27T11:00:54;94296.50;;;-0.25;84.11
41234;BME280;26968;42.686;23.352;2023-01-27T11:03:28;94170.94;;;-1.20;84.28
41234;BME280;26968;42.686;23.352;2023-01-27T11:06:02;94310.09;;;-0.34;84.81
41234;BME280;26968;42.686;23.352;2023-01-27T11:08:31;94271.13;;;-0.53;84.86
41234;BME280;26968;42.686;23.352;2023-01-27T11:11:05;94287.66;;;-0.35;84.26
41234;BME280;26968;42.686;23.352;2023-01-27T11:13:50;94288.91;;;-0.26;84.92
41234;BME280;26968;42.686;23.352;2023-01-27T11:16:28;94295.25;;;-0.11;84.91
41234;BME280;26968;42.686;23.352;2023-01-27T11:18:59;94192.81;;;-0.63;84.93
41234;BME280;26968;42.686;23.352;2023-01-27T11:21:29;94187.00;;;-0.53;84.69
41234;BME280;26968;42.686;23.352;2023-01-27T11:23:55;94129.53;;;-0.98;83.84
41234;BME280;26968;42.686;23.352;2023-01-27T11:26:38;94136.94;;;-1.07;83.59
41234;BME280;26968;42.686;23.352;2023-01-27T11:35:00;94194.72;;;-0.58;84.21
41234;BME280;26968;42.686;23.352;2023-01-27T11:39:55;94182.16;;;-0.61;84.87
41234;BME280;26968;42.686;23.352;2023-01-27T11:42:21;94261.38;;;-0.22;83.27
41234;BME280;26968;42.686;23.352;2023-01-27T11:44:49;94267.81;;;-0.13;83.25
41234;BME280;26968;42.686;23.352;2023-01-27T11:47:39;94196.31;;;-0.81;83.55
41234;BME280;26968;42.686;23.352;2023-01-27T11:50:06;94240.91;;;-0.42;84.04
41234;BME280;26968;42.686;23.352;2023-01-27T11:52:33;94210.34;;;-0.58;84.20
41234;BME280;26968;42.686;23.352;2023-01-27T11:55:06;94262.75;;;-0.31;84.32
41234;BME280;26968;42.686;23.352;2023-01-27T11:57:40;94089.53;;;-1.32;84.49
41234;BME280;26968;42.686;23.352;2023-01-27T12:00:24;94259.22;;;-0.14;84.70
41234;BME280;26968;42.686;23.352;2023-01-27T12:02:59;94157.94;;;-0.97;84.31
41234;BME280;26968;42.686;23.352;2023-01-27T12:05:33;94166.09;;;-0.70;83.63
41234;BME280;26968;42.686;23.352;2023-01-27T12:08:02;94251.50;;;-0.09;84.50
41234;BME280;26968;42.686;23.352;2023-01-27T12:10:34;94257.16;;;0.00;84.03
41234;BME280;26968;42.686;23.352;2023-01-27T12:15:49;94231.72;;;-0.33;83.29
41234;BME280;26968;42.686;23.352;2023-01-27T12:18:15;94249.84;;;-0.26;83.77
41234;BME280;26968;42.686;23.352;2023-01-27T12:20:46;94259.34;;;-0.20;83.91
41234;BME280;26968;42.686;23.352;2023-01-27T12:23:20;94270.91;;;-0.16;84.53
41234;BME280;26968;42.686;23.352;2023-01-27T12:25:52;94230.94;;;-0.45;84.39
41234;BME280;26968;42.686;23.352;2023-01-27T12:28:30;94268.63;;;-0.13;84.56
41234;BME280;26968;42.686;23.352;2023-01-27T12:31:10;94177.41;;;-0.76;83.98
41234;BME280;26968;42.686;23.352;2023-01-27T12:33:40;94248.91;;;-0.20;84.26
41234;BME280;26968;42.686;23.352;2023-01-27T12:36:14;94135.53;;;-0.98;83.70
41234;BME280;26968;42.686;23.352;2023-01-27T12:38:52;94220.94;;;-0.36;83.51
41234;BME280;26968;42.686;23.352;2023-01-27T12:41:23;94131.34;;;-0.99;83.93
41234;BME280;26968;42.686;23.352;2023-01-27T12:43:57;94272.72;;;-0.17;84.11
41234;BME280;26968;42.686;23.352;2023-01-27T12:46:27;94192.47;;;-0.55;84.47
41234;BME280;26968;42.686;23.352;2023-01-27T12:49:00;94205.81;;;-0.51;84.01
41234;BME280;26968;42.686;23.352;2023-01-27T12:51:59;94268.63;;;-0.13;83.54
41234;BME280;26968;42.686;23.352;2023-01-27T12:54:27;94218.38;;;-0.60;84.22
41234;BME280;26968;42.686;23.352;2023-01-27T12:56:55;94244.88;;;-0.40;84.49
41234;BME280;26968;42.686;23.352;2023-01-27T12:59:25;94220.09;;;-0.54;84.86
41234;BME280;26968;42.686;23.352;2023-01-27T13:04:50;94206.38;;;-0.61;86.44
41234;BME280;26968;42.686;23.352;2023-01-27T13:07:19;94257.22;;;-0.23;85.53
41234;BME280;26968;42.686;23.352;2023-01-27T13:09:54;94256.06;;;-0.16;86.59
41234;BME280;26968;42.686;23.352;2023-01-27T13:12:21;94235.78;;;-0.37;86.29
41234;BME280;26968;42.686;23.352;2023-01-27T13:14:53;94138.41;;;-0.99;86.61
41234;BME280;26968;42.686;23.352;2023-01-27T13:17:50;94261.16;;;-0.09;87.18
41234;BME280;26968;42.686;23.352;2023-01-27T13:20:27;94253.19;;;-0.03;87.07
41234;BME280;26968;42.686;23.352;2023-01-27T13:23:01;94252.72;;;0.00;87.25
41234;BME280;26968;42.686;23.352;2023-01-27T13:25:35;94168.88;;;-0.48;86.75
41234;BME280;26968;42.686;23.352;2023-01-27T13:28:04;94143.22;;;-0.68;86.42
41234;BME280;26968;42.686;23.352;2023-01-27T13:30:35;94226.56;;;-0.05;85.73
41234;BME280;26968;42.686;23.352;2023-01-27T13:39:10;94216.19;;;-0.28;86.06
41234;BME280;26968;42.686;23.352;2023-01-27T13:41:53;94248.44;;;-0.06;86.29
41234;BME280;26968;42.686;23.352;2023-01-27T13:44:35;94247.44;;;-0.28;85.42
41234;BME280;26968;42.686;23.352;2023-01-27T13:47:11;94270.56;;;-0.08;86.23
41234;BME280;26968;42.686;23.352;2023-01-27T13:49:42;94247.44;;;-0.28;85.43
41234;BME280;26968;42.686;23.352;2023-01-27T13:52:10;94251.66;;;-0.27;85.56
41234;BME280;26968;42.686;23.352;2023-01-27T13:54:35;94275.09;;;-0.27;85.61
41234;BME280;26968;42.686;23.352;2023-01-27T13:57:17;94256.97;;;-0.33;85.68
41234;BME280;26968;42.686;23.352;2023-01-27T14:05:37;94277.56;;;-0.09;86.01
41234;BME280;26968;42.686;23.352;2023-01-27T14:08:19;94279.03;;;-0.13;86.41
41234;BME280;26968;42.686;23.352;2023-01-27T14:25:17;94292.03;;;0.11;84.93
41234;BME280;26968;42.686;23.352;2023-01-27T14:27:47;94288.78;;;-0.08;84.98
41234;BME280;26968;42.686;23.352;2023-01-27T14:30:38;94298.63;;;0.13;85.01
41234;BME280;26968;42.686;23.352;2023-01-27T14:33:17;94310.19;;;0.06;84.30
41234;BME280;26968;42.686;23.352;2023-01-27T14:36:04;94314.13;;;0.08;83.92
41234;BME280;26968;42.686;23.352;2023-01-27T14:38:45;94286.84;;;-0.01;84.00
41234;BME280;26968;42.686;23.352;2023-01-27T14:41:34;94295.69;;;-0.14;83.77